Time;durP1;ratioP1;P1;durP2;ratioP2;P2;SDS_P1;SDS_P2;PMS_P1;PMS_P2;Temp;Humidity;BMP_temperature;BMP_pressure;BME280_temperature;BME280_humidity;BME280_pressure;Samples;Min_cycle;Max_cycle;Signal;HPM_P1;HPM_P2
2024/04/18 00:00:35;;;;;;;4.68;3.58;;;3.00;99.90;;;;;;5338684;26;20044;-76
2024/04/18 00:03:01;;;;;;;6.45;4.30;;;3.00;99.90;;;;;;5338664;26;20016;-76
2024/04/18 00:05:27;;;;;;;7.25;4.97;;;3.00;99.90;;;;;;5338754;26;20019;-75
2024/04/18 00:07:53;;;;;;;6.18;3.92;;;3.00;99.90;;;;;;5335117;26;20009;-76
2024/04/18 00:10:19;;;;;;;6.30;3.60;;;2.90;99.90;;;;;;5337142;26;20009;-76
2024/04/18 00:12:44;;;;;;;7.57;4.40;;;3.10;99.90;;;;;;5338086;26;20070;-76
2024/04/18 00:15:10;;;;;;;9.63;5.68;;;2.90;99.90;;;;;;5334191;26;20377;-76
2024/04/18 00:17:36;;;;;;;6.60;3.80;;;2.90;99.90;;;;;;5339719;26;20008;-76
2024/04/18 00:20:03;;;;;;;6.03;3.65;;;2.90;99.90;;;;;;5337010;26;20015;-76
2024/04/18 00:22:30;;;;;;;4.35;3.50;;;2.80;99.90;;;;;;5335606;26;20327;-76
2024/04/18 00:24:56;;;;;;;4.93;3.33;;;2.90;99.90;;;;;;5337774;26;20028;-76
2024/04/18 00:27:22;;;;;;;11.68;4.68;;;2.80;99.90;;;;;;5332252;26;20475;-76
2024/04/18 00:29:51;;;;;;;13.63;6.30;;;2.90;99.90;;;;;;5339920;26;20087;-76
2024/04/18 00:32:20;;;;;;;9.93;5.60;;;2.80;99.90;;;;;;5338090;26;20435;-76
2024/04/18 00:34:45;;;;;;;10.55;5.72;;;2.80;99.90;;;;;;5333727;26;20054;-76
2024/04/18 00:37:11;;;;;;;6.68;4.70;;;2.80;99.90;;;;;;5335257;26;20008;-76
2024/04/18 00:39:38;;;;;;;7.43;4.18;;;2.70;99.90;;;;;;5389413;26;20005;-76
2024/04/18 00:42:05;;;;;;;5.50;3.50;;;2.60;99.90;;;;;;5337437;26;20005;-76
2024/04/18 00:44:31;;;;;;;5.32;3.67;;;2.70;99.90;;;;;;5333013;26;20474;-76
2024/04/18 00:46:57;;;;;;;9.38;5.38;;;2.70;99.90;;;;;;5332870;26;20013;-76
2024/04/18 00:49:25;;;;;;;6.90;3.80;;;2.60;99.90;;;;;;5337809;26;20009;-76
2024/04/18 00:52:18;;;;;;;5.65;3.67;;;2.60;99.90;;;;;;5331240;26;20000;-76
2024/04/18 00:54:46;;;;;;;7.32;4.32;;;2.60;99.90;;;;;;5332738;26;20008;-76
2024/04/18 00:57:18;;;;;;;5.68;3.92;;;2.60;99.90;;;;;;5331998;26;20534;-76
2024/04/18 00:59:46;;;;;;;6.00;4.10;;;2.60;99.90;;;;;;5338440;26;20001;-76
2024/04/18 01:02:11;;;;;;;5.30;3.85;;;2.60;99.90;;;;;;5333477;26;20021;-76
2024/04/18 01:04:41;;;;;;;5.32;3.70;;;2.60;99.90;;;;;;5333199;26;20170;-76
2024/04/18 01:07:07;;;;;;;5.88;3.60;;;2.70;99.90;;;;;;5333505;26;20009;-76
2024/04/18 01:09:32;;;;;;;8.93;4.38;;;2.60;99.90;;;;;;5336557;26;20020;-76
2024/04/18 01:12:00;;;;;;;5.95;3.78;;;2.70;99.90;;;;;;5335084;26;20013;-76
2024/04/18 01:14:26;;;;;;;7.78;3.70;;;2.60;99.90;;;;;;5333350;26;20108;-76
2024/04/18 01:16:52;;;;;;;6.07;4.25;;;2.70;99.90;;;;;;5342449;26;20091;-76
2024/04/18 01:19:19;;;;;;;7.40;4.82;;;2.70;99.90;;;;;;5331509;26;20009;-76
2024/04/18 01:21:48;;;;;;;6.53;3.72;;;2.70;99.90;;;;;;5336471;26;20020;-77
2024/04/18 01:24:14;;;;;;;7.53;4.15;;;2.70;99.90;;;;;;5335931;26;20011;-76
2024/04/18 01:26:41;;;;;;;14.85;6.10;;;2.60;99.90;;;;;;5333116;26;20028;-76
2024/04/18 01:29:07;;;;;;;11.68;5.55;;;2.60;99.90;;;;;;5337383;26;20009;-76
2024/04/18 01:31:34;;;;;;;9.50;5.50;;;2.50;99.90;;;;;;5335012;26;19997;-76
2024/04/18 01:33:59;;;;;;;8.73;4.53;;;2.50;99.90;;;;;;5332421;26;20023;-76
2024/04/18 01:36:26;;;;;;;8.80;5.93;;;2.50;99.90;;;;;;5322526;26;20620;-76
2024/04/18 01:38:52;;;;;;;9.50;5.97;;;2.40;99.90;;;;;;5332331;26;20005;-76
2024/04/18 01:41:20;;;;;;;8.65;5.50;;;2.40;99.90;;;;;;5338831;26;20001;-76
2024/04/18 01:43:47;;;;;;;10.60;5.97;;;2.40;99.90;;;;;;5336635;26;20009;-76
2024/04/18 01:46:14;;;;;;;6.57;3.90;;;2.40;99.90;;;;;;5335029;26;20044;-76
2024/04/18 01:48:42;;;;;;;12.10;6.80;;;2.40;99.90;;;;;;5333027;26;20030;-76
2024/04/18 01:51:08;;;;;;;11.73;7.13;;;2.40;99.90;;;;;;5337553;26;20005;-76
2024/04/18 01:53:36;;;;;;;8.18;4.45;;;2.40;99.90;;;;;;5336207;26;20082;-77
2024/04/18 01:56:02;;;;;;;7.80;5.63;;;2.30;99.90;;;;;;5341663;26;20005;-76
2024/04/18 01:58:28;;;;;;;10.45;5.15;;;2.30;99.90;;;;;;5335825;26;20004;-76
2024/04/18 02:00:53;;;;;;;10.07;6.13;;;2.30;99.90;;;;;;5333599;26;20009;-76
2024/04/18 02:03:19;;;;;;;6.70;4.60;;;2.30;99.90;;;;;;5335515;26;20459;-76
2024/04/18 02:05:46;;;;;;;6.93;4.47;;;2.30;99.90;;;;;;5334659;26;20017;-76
2024/04/18 02:08:11;;;;;;;7.57;4.80;;;2.30;99.90;;;;;;5332349;26;20020;-76
2024/04/18 02:10:37;;;;;;;5.57;4.45;;;2.30;99.90;;;;;;5339070;26;20005;-76
2024/04/18 02:13:03;;;;;;;5.30;3.72;;;2.40;99.90;;;;;;5333507;26;20336;-76
2024/04/18 02:15:29;;;;;;;6.10;4.57;;;2.30;99.90;;;;;;5336188;26;20827;-76
2024/04/18 02:17:55;;;;;;;7.13;4.00;;;2.20;99.90;;;;;;5332449;26;20001;-76
2024/04/18 02:20:24;;;;;;;10.02;6.22;;;2.20;99.90;;;;;;5325826;26;20357;-76
2024/04/18 02:22:50;;;;;;;6.20;4.18;;;2.20;99.90;;;;;;5335748;26;20456;-76
2024/04/18 02:25:16;;;;;;;7.18;4.43;;;2.10;99.90;;;;;;5336890;26;20015;-76
2024/04/18 02:27:42;;;;;;;7.60;4.55;;;2.10;99.90;;;;;;5331201;26;20041;-76
2024/04/18 02:30:09;;;;;;;5.38;4.05;;;2.00;99.90;;;;;;5323252;26;20236;-76
2024/04/18 02:32:36;;;;;;;6.35;4.35;;;2.00;99.90;;;;;;5362445;26;20059;-76
2024/04/18 02:35:03;;;;;;;5.65;4.28;;;2.00;99.90;;;;;;5335530;26;20009;-76
2024/04/18 02:37:31;;;;;;;12.45;6.03;;;2.00;99.90;;;;;;5333969;26;19997;-76
2024/04/18 02:39:57;;;;;;;10.38;5.90;;;1.90;99.90;;;;;;5333638;26;20009;-76
2024/04/18 02:42:25;;;;;;;10.70;5.68;;;1.90;99.90;;;;;;5327592;26;20011;-76
2024/04/18 02:44:52;;;;;;;7.68;5.18;;;1.90;99.90;;;;;;5330822;26;20477;-76
2024/04/18 02:47:18;;;;;;;7.97;5.05;;;1.80;99.90;;;;;;5330174;26;20009;-76
2024/04/18 02:49:44;;;;;;;5.30;3.80;;;1.90;99.90;;;;;;5338988;26;20019;-76
2024/04/18 02:52:12;;;;;;;6.32;4.57;;;1.80;99.90;;;;;;5339576;26;20351;-76
2024/04/18 02:54:38;;;;;;;7.05;3.92;;;1.80;99.90;;;;;;5336727;26;20013;-76
2024/04/18 02:57:04;;;;;;;8.45;4.00;;;1.80;99.90;;;;;;5333768;26;20078;-76
2024/04/18 02:59:30;;;;;;;6.32;4.13;;;1.80;99.90;;;;;;5332282;26;19997;-76
2024/04/18 03:01:56;;;;;;;5.43;4.18;;;1.80;99.90;;;;;;5341437;26;20028;-76
2024/04/18 03:04:22;;;;;;;5.13;3.58;;;1.80;99.90;;;;;;5337005;26;19997;-77
2024/04/18 03:06:50;;;;;;;4.18;3.50;;;1.80;99.90;;;;;;5342115;26;20009;-76
2024/04/18 03:09:16;;;;;;;13.10;6.85;;;1.80;99.90;;;;;;5334324;26;19996;-76
2024/04/18 03:11:46;;;;;;;9.73;5.45;;;1.80;99.90;;;;;;5339092;26;20000;-76
2024/04/18 03:14:12;;;;;;;10.05;6.35;;;1.70;99.90;;;;;;5336599;26;20009;-76
2024/04/18 03:16:38;;;;;;;11.55;6.28;;;1.70;99.90;;;;;;5337299;26;20078;-76
2024/04/18 03:19:24;;;;;;;6.43;4.80;;;1.70;99.90;;;;;;5329071;26;20005;-76
2024/04/18 03:21:49;;;;;;;11.00;6.75;;;1.60;99.90;;;;;;5306861;26;20534;-76
2024/04/18 03:24:16;;;;;;;10.85;7.10;;;1.60;99.90;;;;;;5333264;26;20521;-76
2024/04/18 03:26:42;;;;;;;13.02;7.80;;;1.60;99.90;;;;;;5334966;26;20005;-76
2024/04/18 03:29:28;;;;;;;8.95;6.43;;;1.60;99.90;;;;;;5311669;26;20024;-76
2024/04/18 03:31:54;;;;;;;8.23;5.22;;;1.50;99.90;;;;;;5340192;26;20032;-76
2024/04/18 03:34:20;;;;;;;10.70;7.00;;;1.50;99.90;;;;;;5335766;26;20009;-76
2024/04/18 03:36:52;;;;;;;13.13;7.10;;;1.60;99.90;;;;;;5335762;26;20125;-76
2024/04/18 03:39:19;;;;;;;15.98;7.53;;;1.50;99.90;;;;;;5336091;26;20012;-76
2024/04/18 03:41:48;;;;;;;10.23;6.70;;;1.50;99.90;;;;;;5334934;26;20023;-76
2024/04/18 03:44:15;;;;;;;7.90;5.28;;;1.50;99.90;;;;;;5335111;26;20008;-75
2024/04/18 03:47:01;;;;;;;7.88;5.70;;;1.40;99.90;;;;;;5335894;26;20009;-76
2024/04/18 03:49:28;;;;;;;9.82;6.22;;;1.40;99.90;;;;;;5335470;26;20020;-76
2024/04/18 03:52:14;;;;;;;10.13;7.25;;;1.40;99.90;;;;;;5308618;26;20004;-76
2024/04/18 03:54:40;;;;;;;11.38;7.55;;;1.40;99.90;;;;;;5334558;26;20009;-76
2024/04/18 03:57:26;;;;;;;10.18;6.53;;;1.30;99.90;;;;;;5331469;26;20001;-76
2024/04/18 03:59:52;;;;;;;16.95;8.45;;;1.50;99.90;;;;;;5332244;26;20460;-76
2024/04/18 04:02:18;;;;;;;11.48;8.18;;;1.40;99.90;;;;;;5337012;26;20023;-76
2024/04/18 04:04:53;;;;;;;8.63;5.65;;;1.40;99.90;;;;;;5336494;26;20009;-77
2024/04/18 04:07:23;;;;;;;6.80;4.97;;;1.30;99.90;;;;;;5337823;26;20356;-76
2024/04/18 04:10:08;;;;;;;5.40;4.43;;;1.30;99.90;;;;;;5336556;26;20001;-76
2024/04/18 04:12:38;;;;;;;10.68;6.70;;;1.40;99.90;;;;;;5333255;26;20358;-76
2024/04/18 04:15:04;;;;;;;10.48;6.75;;;1.30;99.90;;;;;;5335324;26;20078;-76
2024/04/18 04:17:50;;;;;;;10.32;6.20;;;1.30;99.90;;;;;;5332125;26;20001;-76
2024/04/18 04:20:16;;;;;;;7.07;4.80;;;1.30;99.90;;;;;;5336959;26;20008;-77
2024/04/18 04:22:42;;;;;;;7.22;4.30;;;1.20;99.90;;;;;;5336726;26;20090;-76
2024/04/18 04:25:08;;;;;;;10.05;5.43;;;1.20;99.90;;;;;;5335664;26;20590;-77
2024/04/18 04:27:45;;;;;;;6.95;4.35;;;1.30;99.90;;;;;;5332966;26;20033;-76
2024/04/18 04:30:13;;;;;;;5.85;4.28;;;1.30;99.90;;;;;;5332156;26;20352;-76
2024/04/18 04:32:39;;;;;;;7.50;4.28;;;1.30;99.90;;;;;;5335745;26;20027;-76
2024/04/18 04:35:05;;;;;;;6.25;3.90;;;1.30;99.90;;;;;;5340263;26;20001;-76
2024/04/18 04:37:31;;;;;;;9.80;4.78;;;1.30;99.90;;;;;;5332743;26;20510;-76
2024/04/18 04:39:57;;;;;;;13.63;5.85;;;1.30;99.90;;;;;;5335309;26;20082;-76
2024/04/18 04:42:23;;;;;;;9.25;5.65;;;1.40;99.90;;;;;;5333177;26;20336;-76
2024/04/18 04:44:49;;;;;;;9.82;4.82;;;1.30;99.90;;;;;;5335092;26;19997;-76
2024/04/18 04:47:16;;;;;;;5.78;4.53;;;1.40;99.90;;;;;;5332102;26;20001;-77
2024/04/18 04:49:42;;;;;;;8.73;4.50;;;1.40;99.90;;;;;;5335935;26;20030;-76
2024/04/18 04:52:08;;;;;;;6.82;4.90;;;1.40;99.90;;;;;;5334788;26;19997;-76
2024/04/18 04:54:34;;;;;;;8.25;5.20;;;1.30;99.90;;;;;;5335503;26;20008;-76
2024/04/18 04:57:00;;;;;;;9.55;6.32;;;1.40;99.90;;;;;;5333531;26;20027;-76
2024/04/18 04:59:26;;;;;;;9.27;6.47;;;1.40;99.90;;;;;;5333787;26;20436;-76
2024/04/18 05:01:52;;;;;;;14.10;7.55;;;1.40;99.90;;;;;;5335143;26;20036;-76
2024/04/18 05:04:21;;;;;;;10.85;7.10;;;1.40;99.90;;;;;;5332299;26;20012;-76
2024/04/18 05:06:46;;;;;;;7.35;5.20;;;1.40;99.90;;;;;;5334434;26;20016;-76
2024/04/18 05:09:16;;;;;;;8.63;4.78;;;1.50;99.90;;;;;;5333007;26;20322;-76
2024/04/18 05:11:42;;;;;;;8.13;5.32;;;1.50;99.90;;;;;;5333904;26;20015;-76
2024/04/18 05:14:08;;;;;;;10.73;5.97;;;1.50;99.90;;;;;;5328252;26;20005;-76
2024/04/18 05:16:34;;;;;;;10.10;6.18;;;1.60;99.90;;;;;;5336207;26;20017;-76
2024/04/18 05:19:02;;;;;;;11.68;6.32;;;1.50;99.90;;;;;;5332915;26;20091;-76
2024/04/18 05:21:28;;;;;;;8.65;5.35;;;1.70;99.90;;;;;;5337328;26;20015;-75
2024/04/18 05:23:54;;;;;;;9.70;4.85;;;1.70;99.90;;;;;;5333643;26;20005;-76
2024/04/18 05:26:29;;;;;;;5.18;4.20;;;1.80;99.90;;;;;;5327281;26;20574;-76
2024/04/18 05:31:47;;;;;;;6.03;4.70;;;2.00;99.90;;;;;;5333172;26;20407;-76
2024/04/18 05:34:13;;;;;;;8.20;4.90;;;2.10;99.90;;;;;;5332704;26;20001;-76
2024/04/18 05:36:39;;;;;;;9.05;4.70;;;2.10;99.90;;;;;;5332225;26;20023;-76
2024/04/18 05:39:05;;;;;;;9.80;4.88;;;2.20;99.90;;;;;;5328261;26;20009;-76
2024/04/18 05:41:32;;;;;;;9.13;5.07;;;2.30;99.90;;;;;;5337222;26;20012;-76
2024/04/18 05:43:58;;;;;;;9.40;5.22;;;2.40;99.90;;;;;;5332083;26;20001;-76
2024/04/18 05:46:24;;;;;;;7.25;4.30;;;2.50;99.90;;;;;;5332416;26;20433;-76
2024/04/18 05:48:51;;;;;;;10.85;5.43;;;2.50;99.90;;;;;;5331926;26;20004;-76
2024/04/18 05:51:20;;;;;;;10.38;6.18;;;2.60;99.90;;;;;;5331898;26;20349;-75
2024/04/18 05:53:45;;;;;;;11.77;5.38;;;2.60;99.90;;;;;;5333683;26;20001;-76
2024/04/18 05:56:11;;;;;;;7.75;5.05;;;2.80;99.90;;;;;;5333190;26;20793;-76
2024/04/18 05:58:38;;;;;;;10.13;5.32;;;2.80;99.90;;;;;;5337687;26;20433;-77
2024/04/18 06:01:05;;;;;;;8.70;5.32;;;2.80;99.90;;;;;;5329578;26;20001;-77
2024/04/18 06:03:32;;;;;;;8.48;4.95;;;2.90;99.90;;;;;;5330492;26;20001;-77
2024/04/18 06:05:59;;;;;;;11.73;5.72;;;2.90;99.90;;;;;;5334501;26;20091;-76
2024/04/18 06:08:25;;;;;;;12.38;6.20;;;3.10;99.90;;;;;;5335468;26;20079;-76
2024/04/18 06:10:51;;;;;;;8.32;5.50;;;3.10;99.90;;;;;;5327078;26;20005;-77
2024/04/18 06:13:19;;;;;;;10.52;5.40;;;3.20;99.90;;;;;;5337153;26;20379;-76
2024/04/18 06:15:46;;;;;;;8.07;5.43;;;3.30;99.90;;;;;;5331547;26;20024;-76
2024/04/18 06:18:13;;;;;;;10.90;5.30;;;3.40;99.90;;;;;;5331220;26;20012;-77
2024/04/18 06:20:46;;;;;;;10.38;6.40;;;3.50;99.90;;;;;;5340286;26;20009;-77
2024/04/18 06:23:13;;;;;;;12.70;6.57;;;3.50;99.90;;;;;;5333294;26;19997;-77
2024/04/18 06:25:39;;;;;;;10.95;6.18;;;3.60;99.90;;;;;;5338592;26;20383;-77
2024/04/18 06:28:09;;;;;;;12.30;6.70;;;3.70;99.90;;;;;;5332019;26;20059;-77
2024/04/18 06:30:34;;;;;;;11.45;6.32;;;3.80;99.90;;;;;;5327429;26;20016;-76
2024/04/18 06:33:00;;;;;;;10.55;6.10;;;3.80;99.90;;;;;;5329660;26;20009;-77
2024/04/18 06:35:26;;;;;;;11.65;6.10;;;4.00;99.90;;;;;;5335740;26;20059;-77
2024/04/18 06:37:52;;;;;;;12.73;5.85;;;4.00;99.90;;;;;;5331817;26;20000;-77
2024/04/18 06:40:23;;;;;;;11.23;6.85;;;4.10;99.90;;;;;;5328583;26;20385;-77
2024/04/18 06:42:50;;;;;;;10.32;5.65;;;4.20;99.90;;;;;;5337165;26;20336;-76
2024/04/18 06:45:17;;;;;;;12.93;6.10;;;4.40;99.90;;;;;;5334362;26;20005;-77
2024/04/18 06:47:50;;;;;;;10.15;5.53;;;4.50;99.90;;;;;;5390402;26;20001;-77
2024/04/18 06:50:20;;;;;;;12.15;6.13;;;4.60;99.90;;;;;;5334498;26;20464;-76
2024/04/18 06:52:46;;;;;;;9.20;5.22;;;4.70;99.90;;;;;;5334986;26;20016;-76
2024/04/18 06:55:11;;;;;;;8.90;5.18;;;4.90;99.90;;;;;;5335270;26;20012;-76
2024/04/18 06:57:37;;;;;;;7.97;5.30;;;4.90;99.90;;;;;;5334188;26;20158;-77
2024/04/18 07:00:04;;;;;;;12.55;5.47;;;5.10;99.90;;;;;;5337187;26;20048;-77
2024/04/18 07:02:30;;;;;;;11.73;5.47;;;5.20;99.90;;;;;;5338563;26;20016;-76
2024/04/18 07:04:56;;;;;;;7.43;4.63;;;5.30;99.90;;;;;;5335377;26;20383;-76
2024/04/18 07:07:22;;;;;;;11.45;5.00;;;5.40;99.90;;;;;;5335937;26;20009;-76
2024/04/18 07:09:48;;;;;;;8.77;4.43;;;5.50;99.90;;;;;;5332521;26;20010;-77
2024/04/18 07:12:14;;;;;;;9.80;4.95;;;5.60;99.90;;;;;;5308195;26;20005;-76
2024/04/18 07:14:39;;;;;;;10.82;4.82;;;5.60;99.90;;;;;;5332934;26;19997;-77
2024/04/18 07:17:05;;;;;;;8.05;4.22;;;5.70;99.90;;;;;;5336430;26;20456;-77
2024/04/18 07:19:31;;;;;;;7.55;4.57;;;5.90;99.90;;;;;;5333417;26;20013;-77
2024/04/18 07:21:57;;;;;;;7.75;4.25;;;5.80;99.90;;;;;;5338348;26;20017;-82
2024/04/18 07:24:26;;;;;;;6.63;3.90;;;5.90;99.90;;;;;;5329922;26;20060;-82
2024/04/18 07:26:51;;;;;;;8.30;3.85;;;6.00;99.90;;;;;;5337892;26;20009;-82
2024/04/18 07:29:21;;;;;;;6.18;3.60;;;6.10;99.90;;;;;;5334640;26;20412;-81
2024/04/18 07:31:46;;;;;;;8.70;3.63;;;6.10;99.90;;;;;;5331041;26;20029;-81
2024/04/18 07:34:15;;;;;;;8.77;3.80;;;6.30;99.90;;;;;;5337236;26;20027;-82
2024/04/18 07:36:44;;;;;;;7.85;3.97;;;6.40;99.90;;;;;;5337724;26;20632;-82
2024/04/18 07:39:10;;;;;;;8.52;4.00;;;6.50;99.90;;;;;;5335955;26;20005;-82
2024/04/18 07:41:36;;;;;;;8.48;3.78;;;6.60;99.90;;;;;;5338411;26;20396;-82
2024/04/18 07:44:02;;;;;;;10.68;3.75;;;6.80;99.90;;;;;;5362767;26;20367;-82
2024/04/18 07:46:32;;;;;;;8.27;3.60;;;6.90;99.90;;;;;;5331648;26;20368;-82
2024/04/18 07:48:58;;;;;;;5.20;2.72;;;7.00;99.90;;;;;;5332284;26;20012;-82
2024/04/18 07:51:25;;;;;;;7.35;2.83;;;7.20;99.90;;;;;;5339912;26;20020;-82
2024/04/18 07:53:50;;;;;;;4.70;2.85;;;7.40;99.90;;;;;;5330410;26;20009;-82
2024/04/18 07:56:16;;;;;;;4.13;2.33;;;7.70;99.90;;;;;;5338751;26;20032;-83
2024/04/18 07:58:42;;;;;;;8.48;2.70;;;7.90;99.90;;;;;;5329209;26;20320;-83
2024/04/18 08:01:11;;;;;;;6.38;1.95;;;8.10;99.90;;;;;;5339289;26;20009;-82
2024/04/18 08:03:40;;;;;;;5.90;2.03;;;8.40;99.90;;;;;;5334559;26;20576;-83
2024/04/18 08:06:06;;;;;;;6.28;2.00;;;8.60;99.90;;;;;;5365607;26;20001;-83
2024/04/18 08:08:32;;;;;;;5.05;2.05;;;8.90;99.90;;;;;;5333884;26;20020;-82
2024/04/18 08:10:58;;;;;;;6.18;1.80;;;9.10;99.90;;;;;;5333345;26;20309;-83
2024/04/18 08:13:24;;;;;;;4.50;1.45;;;9.10;99.90;;;;;;5337482;26;20016;-82
2024/04/18 08:15:50;;;;;;;5.90;1.85;;;9.10;99.90;;;;;;5334433;26;20005;-82
2024/04/18 08:18:16;;;;;;;6.65;1.90;;;9.00;99.90;;;;;;5338232;26;20020;-82
2024/04/18 08:20:46;;;;;;;4.78;1.90;;;9.00;99.90;;;;;;5332336;26;20024;-82
2024/04/18 08:23:12;;;;;;;5.13;1.70;;;8.90;99.90;;;;;;5396324;26;20440;-83
2024/04/18 08:25:38;;;;;;;7.28;2.28;;;8.80;99.90;;;;;;5332880;26;20083;-83
2024/04/18 08:28:05;;;;;;;6.30;1.85;;;8.80;99.90;;;;;;5339743;26;20016;-83
2024/04/18 08:30:31;;;;;;;7.13;1.90;;;8.80;99.90;;;;;;5337669;26;20016;-83
2024/04/18 08:32:57;;;;;;;5.40;1.95;;;8.90;99.90;;;;;;5335738;26;20017;-83
2024/04/18 08:35:23;;;;;;;5.80;3.90;;;9.00;99.90;;;;;;5337724;26;20009;-83
2024/04/18 08:37:50;;;;;;;7.57;2.65;;;9.00;99.90;;;;;;5333194;26;20001;-83
2024/04/18 08:40:16;;;;;;;6.47;3.13;;;9.00;99.90;;;;;;5334612;26;20009;-83
2024/04/18 08:42:43;;;;;;;4.95;1.55;;;8.90;99.90;;;;;;5332947;26;20086;-83
2024/04/18 08:45:12;;;;;;;4.97;1.70;;;8.90;99.90;;;;;;5335917;26;20016;-83
2024/04/18 08:47:39;;;;;;;4.32;1.42;;;9.10;99.90;;;;;;5334898;26;20021;-83
2024/04/18 08:50:07;;;;;;;4.38;1.20;;;9.30;99.90;;;;;;5335736;26;20501;-83
2024/04/18 08:52:35;;;;;;;;;;;9.60;99.90;;;;;;5359392;26;20015;-83
2024/04/18 08:55:01;;;;;;;4.82;1.27;;;10.00;99.90;;;;;;5330251;26;20021;-82
2024/04/18 08:57:34;;;;;;;5.35;1.80;;;10.30;99.90;;;;;;5335369;26;20019;-83
2024/04/18 09:00:01;;;;;;;6.70;1.77;;;10.60;99.90;;;;;;5333494;26;20009;-83
2024/04/18 09:02:27;;;;;;;5.90;1.45;;;10.90;99.90;;;;;;5333618;26;20017;-83
2024/04/18 09:04:54;;;;;;;3.92;1.27;;;11.00;99.90;;;;;;5335208;26;20019;-83
2024/04/18 09:07:23;;;;;;;4.75;1.30;;;10.90;99.90;;;;;;5334265;26;20001;-83
2024/04/18 09:09:53;;;;;;;4.63;1.40;;;10.70;99.90;;;;;;5338036;26;20009;-83
2024/04/18 09:12:19;;;;;;;5.22;1.00;;;10.50;99.90;;;;;;5333385;26;20009;-83
2024/04/18 09:14:45;;;;;;;3.75;1.05;;;10.30;99.90;;;;;;5334218;26;20086;-83
2024/04/18 09:17:14;;;;;;;5.25;1.15;;;10.10;99.90;;;;;;5336846;26;20359;-82
2024/04/18 09:19:40;;;;;;;3.60;1.20;;;9.90;99.90;;;;;;5390807;26;20081;-83
2024/04/18 09:22:06;;;;;;;3.92;1.00;;;9.70;99.90;;;;;;5335002;26;20467;-83
2024/04/18 09:24:32;;;;;;;3.95;1.25;;;9.60;99.90;;;;;;5335438;26;20020;-83
2024/04/18 09:26:58;;;;;;;5.57;1.10;;;9.40;99.90;;;;;;5333450;26;20002;-82
2024/04/18 09:29:24;;;;;;;4.43;1.17;;;9.40;99.90;;;;;;5334741;26;20009;-82
2024/04/18 09:31:52;;;;;;;3.05;0.75;;;9.40;99.90;;;;;;5332691;26;20023;-83
2024/04/18 09:34:18;;;;;;;2.47;0.75;;;9.40;99.90;;;;;;5335411;26;20015;-83
2024/04/18 09:36:46;;;;;;;3.22;0.77;;;9.50;99.90;;;;;;5326652;26;20075;-82
2024/04/18 09:39:27;;;;;;;4.03;0.70;;;9.50;99.90;;;;;;5335923;26;20080;-82
2024/04/18 09:42:26;;;;;;;3.65;0.50;;;9.50;99.90;;;;;;5390946;26;20033;-82
2024/04/18 09:45:02;;;;;;;3.28;0.55;;;9.50;99.90;;;;;;5333137;26;20413;-83
2024/04/18 09:47:31;;;;;;;3.05;0.68;;;9.60;99.90;;;;;;5388853;26;20012;-83
2024/04/18 09:49:58;;;;;;;3.38;1.00;;;9.60;99.90;;;;;;5335813;26;20001;-83
2024/04/18 09:52:25;;;;;;;4.47;1.17;;;9.90;99.90;;;;;;5328696;26;20091;-83
2024/04/18 09:54:52;;;;;;;6.07;1.20;;;10.50;99.90;;;;;;5333215;26;20005;-84
2024/04/18 09:57:19;;;;;;;4.65;2.15;;;10.80;99.90;;;;;;5333704;26;20008;-84
2024/04/18 09:59:46;;;;;;;3.25;1.42;;;11.10;99.90;;;;;;5335767;26;20020;-82
2024/04/18 10:02:15;;;;;;;3.17;1.15;;;11.50;99.90;;;;;;5332611;26;20020;-83
2024/04/18 10:04:42;;;;;;;4.93;1.40;;;11.90;99.90;;;;;;5336099;26;20009;-82
2024/04/18 10:07:12;;;;;;;2.15;0.60;;;12.30;99.90;;;;;;5334511;26;20005;-82
2024/04/18 10:09:43;;;;;;;4.43;1.25;;;12.60;99.90;;;;;;5331634;26;20020;-84
2024/04/18 10:12:13;;;;;;;3.95;0.98;;;12.70;99.90;;;;;;5334499;26;20008;-83
2024/04/18 10:14:39;;;;;;;4.13;1.55;;;12.60;99.90;;;;;;5335595;26;20746;-83
2024/04/18 10:17:33;;;;;;;4.20;1.05;;;12.40;99.90;;;;;;5331305;26;20478;-84
2024/04/18 10:20:15;;;;;;;6.25;1.35;;;12.10;99.90;;;;;;5334864;26;20019;-84
2024/04/18 10:23:10;;;;;;;4.45;1.10;;;11.80;99.90;;;;;;5334156;26;20005;-85
2024/04/18 10:25:40;;;;;;;5.25;1.73;;;11.60;99.90;;;;;;5334747;26;20028;-84
2024/04/18 10:28:36;;;;;;;4.97;1.17;;;11.30;99.90;;;;;;5336649;26;20023;-83
2024/04/18 10:31:06;;;;;;;5.20;1.17;;;11.20;99.90;;;;;;5327014;26;20078;-83
2024/04/18 10:33:36;;;;;;;3.97;1.38;;;11.10;99.90;;;;;;5332076;26;20009;-83
2024/04/18 10:36:02;;;;;;;;;;;11.00;99.90;;;;;;5332518;26;20479;-83
2024/04/18 10:38:28;;;;;;;5.05;1.10;;;11.10;99.90;;;;;;5333817;26;19926;-85
2024/04/18 10:41:04;;;;;;;4.97;1.23;;;11.50;99.90;;;;;;5330965;26;20009;-83
2024/04/18 10:43:32;;;;;;;4.72;1.10;;;11.90;99.90;;;;;;5336743;26;20465;-83
2024/04/18 10:46:00;;;;;;;3.25;1.10;;;12.20;99.90;;;;;;5327649;26;20045;-83
2024/04/18 10:48:27;;;;;;;4.88;0.95;;;12.20;99.90;;;;;;5336478;26;20023;-83
2024/04/18 10:50:53;;;;;;;4.22;0.90;;;12.10;99.90;;;;;;5330872;26;20016;-84
2024/04/18 10:53:19;;;;;;;5.82;1.40;;;11.90;99.90;;;;;;5335019;26;20024;-82
2024/04/18 10:55:49;;;;;;;6.57;1.50;;;11.80;99.90;;;;;;5389661;26;20075;-83
2024/04/18 10:58:15;;;;;;;6.28;1.30;;;11.50;99.90;;;;;;5390137;26;20036;-83
2024/04/18 11:00:43;;;;;;;6.60;1.20;;;11.30;99.90;;;;;;5333488;26;20450;-83
2024/04/18 11:03:09;;;;;;;9.32;1.77;;;11.10;99.90;;;;;;5335305;26;20017;-83
2024/04/18 11:05:40;;;;;;;7.10;1.77;;;10.90;99.90;;;;;;5335444;26;20001;-84
2024/04/18 11:08:07;;;;;;;7.22;1.80;;;10.70;99.90;;;;;;5307033;26;20056;-83
2024/04/18 11:10:34;;;;;;;6.78;1.77;;;10.60;99.90;;;;;;5337504;26;20510;-83
2024/04/18 11:13:01;;;;;;;6.40;1.95;;;10.40;99.90;;;;;;5333461;26;20009;-83
2024/04/18 11:15:30;;;;;;;9.15;2.20;;;10.40;99.90;;;;;;5393498;26;20017;-83
2024/04/18 11:17:56;;;;;;;5.85;1.45;;;10.40;99.90;;;;;;5332461;26;20004;-83
2024/04/18 11:20:23;;;;;;;7.80;1.83;;;10.40;99.90;;;;;;5336432;26;20012;-83
2024/04/18 11:22:53;;;;;;;4.85;1.40;;;10.50;99.90;;;;;;5337966;26;20008;-83
2024/04/18 11:25:19;;;;;;;7.00;1.85;;;10.60;99.90;;;;;;5355921;26;20001;-83
2024/04/18 11:27:45;;;;;;;7.28;2.28;;;10.70;99.90;;;;;;5343569;26;20097;-82
2024/04/18 11:30:17;;;;;;;6.25;1.50;;;10.80;99.90;;;;;;5332153;26;20001;-83
2024/04/18 11:32:54;;;;;;;5.70;1.40;;;11.10;99.90;;;;;;5335276;26;20009;-83
2024/04/18 11:35:23;;;;;;;6.65;1.27;;;11.40;99.90;;;;;;5335759;26;20333;-83
2024/04/18 11:37:49;;;;;;;8.70;1.50;;;11.80;99.90;;;;;;5324583;26;20009;-84
2024/04/18 11:40:15;;;;;;;4.85;1.45;;;12.00;99.90;;;;;;5332650;26;20005;-84
2024/04/18 11:42:42;;;;;;;8.63;1.45;;;12.20;99.90;;;;;;5333725;26;20073;-83
2024/04/18 11:45:09;;;;;;;4.60;1.23;;;12.20;99.90;;;;;;5334218;26;19997;-83
2024/04/18 11:47:36;;;;;;;5.28;1.30;;;12.20;99.90;;;;;;5337115;26;20479;-83
2024/04/18 11:50:06;;;;;;;5.93;1.05;;;12.10;99.90;;;;;;5335574;26;20005;-83
2024/04/18 11:52:33;;;;;;;3.78;0.90;;;12.00;99.90;;;;;;5391700;26;20009;-83
2024/04/18 11:54:59;;;;;;;4.63;1.20;;;11.90;99.90;;;;;;5336199;26;20005;-83
2024/04/18 11:57:26;;;;;;;4.32;0.93;;;11.90;99.90;;;;;;5330891;26;20001;-83
2024/04/18 11:59:52;;;;;;;3.85;1.20;;;12.00;99.90;;;;;;5324438;26;20101;-82
2024/04/18 12:02:18;;;;;;;4.63;1.15;;;12.10;99.90;;;;;;5336204;26;20012;-84
2024/04/18 12:04:43;;;;;;;5.10;1.00;;;12.20;99.90;;;;;;5331370;26;20775;-83
2024/04/18 12:07:09;;;;;;;4.60;0.90;;;12.30;99.90;;;;;;5335571;26;19998;-82
2024/04/18 12:09:42;;;;;;;3.30;0.77;;;12.60;99.90;;;;;;5337471;26;20005;-83
2024/04/18 12:12:08;;;;;;;2.45;0.85;;;12.90;99.90;;;;;;5333652;26;20410;-82
2024/04/18 12:14:35;;;;;;;2.20;0.52;;;13.30;99.90;;;;;;5323233;26;20016;-81
2024/04/18 12:17:01;;;;;;;4.18;0.88;;;13.40;99.90;;;;;;5331575;26;20265;-80
2024/04/18 12:19:27;;;;;;;3.35;0.95;;;13.40;99.90;;;;;;5335328;26;20016;-82
2024/04/18 12:21:54;;;;;;;8.27;1.25;;;13.10;99.90;;;;;;5336466;26;20009;-81
2024/04/18 12:24:20;;;;;;;4.22;1.13;;;12.80;99.90;;;;;;5335138;26;20016;-83
2024/04/18 12:26:46;;;;;;;5.90;1.42;;;12.50;99.90;;;;;;5336470;26;20005;-83
2024/04/18 12:29:12;;;;;;;7.55;1.88;;;12.30;99.90;;;;;;5335035;26;20467;-82
2024/04/18 12:31:38;;;;;;;6.07;1.45;;;12.20;99.90;;;;;;5336463;26;20075;-81
2024/04/18 12:34:04;;;;;;;7.10;1.40;;;12.10;99.90;;;;;;5363060;26;20636;-81
2024/04/18 12:36:30;;;;;;;4.60;1.35;;;12.00;99.90;;;;;;5335623;26;20891;-83
2024/04/18 12:38:56;;;;;;;6.28;1.77;;;11.90;99.90;;;;;;5333792;26;20444;-82
2024/04/18 12:41:22;;;;;;;8.57;1.80;;;11.90;99.90;;;;;;5334563;26;20016;-82
2024/04/18 12:43:48;;;;;;;5.82;1.20;;;11.90;99.90;;;;;;5328283;26;20033;-81
2024/04/18 12:46:13;;;;;;;6.68;1.38;;;12.00;99.90;;;;;;5336248;26;20443;-82
2024/04/18 12:48:40;;;;;;;6.78;1.40;;;12.00;99.90;;;;;;5337020;26;20696;-83
2024/04/18 12:51:13;;;;;;;4.30;1.35;;;12.10;99.90;;;;;;5303566;26;20056;-83
2024/04/18 12:53:39;;;;;;;5.82;1.17;;;12.10;99.90;;;;;;5337017;26;20024;-84
2024/04/18 12:56:05;;;;;;;5.57;1.35;;;12.30;99.90;;;;;;5329233;26;20012;-83
2024/04/18 12:58:32;;;;;;;3.90;0.77;;;12.40;99.90;;;;;;5336227;26;20359;-82